Time;durP1;ratioP1;P1;durP2;ratioP2;P2;SDS_P1;SDS_P2;PMS_P1;PMS_P2;Temp;Humidity;BMP_temperature;BMP_pressure;BME280_temperature;BME280_humidity;BME280_pressure;Samples;Min_cycle;Max_cycle;Signal;HPM_P1;HPM_P2
2021/11/19 00:01:37;;;;;;;94.95;32.17;;;;;;;0.39;77.09;98473.94;6197655;22;20118;-76
2021/11/19 00:04:03;;;;;;;83.13;29.88;;;;;;;0.44;77.12;98462.47;6283305;22;20106;-76
2021/11/19 00:06:30;;;;;;;86.43;31.08;;;;;;;0.45;77.17;98487.47;6221977;22;20027;-75
2021/11/19 00:08:56;;;;;;;89.43;30.50;;;;;;;0.51;77.10;98476.56;6284558;22;20050;-76
2021/11/19 00:11:25;;;;;;;79.43;28.63;;;;;;;0.58;76.60;98484.50;6282349;22;20031;-77
2021/11/19 00:13:54;;;;;;;73.22;27.35;;;;;;;0.31;77.04;98447.41;6196511;22;20024;-76
2021/11/19 00:16:23;;;;;;;69.25;27.23;;;;;;;0.55;76.66;98466.16;6254266;22;20024;-76
2021/11/19 00:18:51;;;;;;;71.30;26.77;;;;;;;0.58;76.80;98446.81;6232747;22;20038;-76
2021/11/19 00:21:17;;;;;;;;;;;;;;;0.67;76.58;98460.69;6281884;22;20034;-75
2021/11/19 00:23:45;;;;;;;68.97;25.65;;;;;;;0.65;76.35;98460.97;6220864;22;19947;-76
2021/11/19 00:26:16;;;;;;;73.75;25.70;;;;;;;0.62;76.57;98457.94;6248052;22;20034;-76
2021/11/19 00:28:43;;;;;;;66.25;25.85;;;;;;;0.60;76.62;98460.06;6284814;22;20106;-77
2021/11/19 00:31:11;;;;;;;67.85;25.85;;;;;;;0.56;77.13;98454.31;6282357;22;20023;-77
2021/11/19 00:33:38;;;;;;;;;;;;;;;0.62;76.92;98450.66;6257167;22;20024;-77
2021/11/19 00:36:07;;;;;;;64.28;23.95;;;;;;;0.57;76.90;98466.72;6256081;22;20006;-77
2021/11/19 00:38:35;;;;;;;55.22;22.80;;;;;;;0.59;77.12;98444.97;6258007;22;20027;-77
2021/11/19 00:41:06;;;;;;;53.47;23.38;;;;;;;0.60;76.90;98441.22;6196181;22;20024;-77
2021/11/19 00:43:32;;;;;;;59.20;23.58;;;;;;;0.59;77.14;98443.06;6284626;22;20027;-78
2021/11/19 00:45:59;;;;;;;57.30;24.02;;;;;;;0.67;76.84;98445.38;6247612;22;20019;-78
2021/11/19 00:48:28;;;;;;;60.65;23.50;;;;;;;0.72;76.47;98446.53;6284923;22;20019;-78
2021/11/19 00:50:57;;;;;;;51.85;21.52;;;;;;;0.66;76.72;98442.94;6246201;22;20031;-78
2021/11/19 00:53:23;;;;;;;54.65;22.08;;;;;;;0.74;76.56;98433.63;6273723;22;20016;-78
2021/11/19 00:55:49;;;;;;;53.97;21.33;;;;;;;0.67;76.76;98423.88;6246741;22;20464;-78
2021/11/19 00:58:18;;;;;;;;;;;;;;;0.72;76.70;98439.28;6273302;22;20023;-78
2021/11/19 01:00:50;;;;;;;55.58;21.00;;;;;;;0.68;76.96;98421.97;6271520;22;19919;-77
2021/11/19 01:03:17;;;;;;;44.03;18.38;;;;;;;0.72;76.52;98414.22;6256952;22;20037;-77
2021/11/19 01:05:46;;;;;;;45.70;21.25;;;;;;;0.79;76.56;98426.47;6220701;22;20028;-78
2021/11/19 01:08:12;;;;;;;42.92;18.60;;;;;;;0.69;76.62;98413.66;6196454;22;20045;-78
2021/11/19 01:10:40;;;;;;;44.25;19.92;;;;;;;0.63;76.68;98405.75;6220042;22;20210;-77
2021/11/19 01:13:08;;;;;;;41.53;18.83;;;;;;;0.72;76.55;98409.69;6257070;22;20015;-77
2021/11/19 01:15:43;;;;;;;44.88;20.02;;;;;;;0.73;76.98;98407.78;6284645;22;20054;-77
2021/11/19 01:18:12;;;;;;;42.20;19.75;;;;;;;0.77;76.85;98412.44;6231628;22;20019;-76
2021/11/19 01:20:42;;;;;;;42.67;18.77;;;;;;;0.78;76.92;98410.56;6246085;22;20034;-77
2021/11/19 01:23:13;;;;;;;40.30;18.58;;;;;;;0.81;76.67;98416.28;6257929;22;20015;-78
2021/11/19 01:25:48;;;;;;;42.20;19.48;;;;;;;0.80;77.05;98417.34;6257071;22;20024;-77
2021/11/19 01:28:18;;;;;;;38.47;18.75;;;;;;;0.82;76.64;98403.66;6196961;22;20114;-76
2021/11/19 01:30:46;;;;;;;40.67;19.98;;;;;;;0.75;77.11;98411.06;6246131;22;20393;-75
2021/11/19 01:33:13;;;;;;;36.88;17.17;;;;;;;0.79;77.02;98414.91;6255679;22;20102;-77
2021/11/19 01:35:57;;;;;;;36.50;16.75;;;;;;;0.78;77.20;98416.75;6278901;22;20468;-77
2021/11/19 01:38:44;;;;;;;40.33;18.75;;;;;;;0.82;76.98;98412.50;6200540;22;20482;-77
2021/11/19 01:41:33;;;;;;;39.17;17.90;;;;;;;0.73;77.05;98410.47;6246168;22;20023;-77
2021/11/19 01:44:09;;;;;;;35.10;16.80;;;;;;;0.78;77.40;98418.63;6255201;22;20023;-77
2021/11/19 01:46:35;;;;;;;37.28;17.38;;;;;;;0.66;77.77;98422.22;6277619;22;20019;-77
2021/11/19 01:49:02;;;;;;;39.72;17.15;;;;;;;0.72;77.68;98414.22;6281714;22;20356;-76
2021/11/19 01:51:30;;;;;;;;;;;;;;;0.80;77.30;98392.31;6252129;22;20023;-76
2021/11/19 01:54:04;;;;;;;38.13;17.40;;;;;;;0.78;77.33;98411.38;6229442;22;20006;-77
2021/11/19 01:56:36;;;;;;;34.80;16.83;;;;;;;0.76;77.32;98407.28;6253724;22;20019;-76
2021/11/19 01:59:08;;;;;;;37.75;17.00;;;;;;;0.78;77.33;98410.56;6231249;22;20050;-75
2021/11/19 02:01:40;;;;;;;36.60;16.52;;;;;;;0.69;77.47;98418.22;6245644;22;20030;-76
2021/11/19 02:04:10;;;;;;;39.03;16.13;;;;;;;0.76;77.50;98401.91;6243794;22;20285;-77
2021/11/19 02:06:41;;;;;;;39.90;16.67;;;;;;;0.87;77.17;98392.16;6226404;22;20027;-76
2021/11/19 02:09:29;;;;;;;37.22;16.55;;;;;;;0.84;77.34;98405.00;6197205;22;20024;-76
2021/11/19 02:12:16;;;;;;;39.60;16.80;;;;;;;0.80;77.41;98395.00;6271883;22;20027;-76
2021/11/19 02:15:03;;;;;;;35.22;16.15;;;;;;;0.75;77.32;98398.44;6255836;22;20019;-76
2021/11/19 02:17:30;;;;;;;;;;;;;;;0.89;77.16;98393.50;6245416;22;20080;-78
2021/11/19 02:20:00;;;;;;;35.17;15.70;;;;;;;0.85;77.17;98397.75;6229613;22;19919;-77
2021/11/19 02:22:33;;;;;;;39.28;17.33;;;;;;;0.81;77.09;98389.34;6275132;22;20106;-76
2021/11/19 02:25:05;;;;;;;34.88;16.60;;;;;;;0.82;77.17;98399.06;6229457;22;20027;-76
2021/11/19 02:27:35;;;;;;;38.95;16.83;;;;;;;0.90;77.27;98387.06;6248803;22;20023;-77
2021/11/19 02:30:06;;;;;;;34.20;16.20;;;;;;;0.92;77.25;98386.84;6245831;22;20028;-77
2021/11/19 02:32:41;;;;;;;36.45;17.60;;;;;;;0.88;77.29;98401.84;6220286;22;20460;-77
2021/11/19 02:35:11;;;;;;;36.45;16.75;;;;;;;0.79;77.60;98391.47;6255514;22;20051;-76
2021/11/19 02:37:40;;;;;;;37.22;17.50;;;;;;;0.89;77.41;98381.94;6220907;22;20031;-78
2021/11/19 02:40:13;;;;;;;36.47;16.17;;;;;;;0.83;77.25;98363.00;6256109;22;20050;-77
2021/11/19 02:42:45;;;;;;;35.22;16.25;;;;;;;0.93;77.08;98378.50;6248046;22;20019;-78
2021/11/19 02:45:14;;;;;;;44.50;17.02;;;;;;;0.93;77.24;98385.78;6231195;22;20380;-76
2021/11/19 02:47:41;;;;;;;36.67;17.13;;;;;;;1.01;76.97;98373.78;6246492;22;20026;-76
2021/11/19 02:50:18;;;;;;;39.40;18.48;;;;;;;0.98;77.04;98373.22;6221513;22;20023;-77
2021/11/19 02:52:47;;;;;;;45.10;18.20;;;;;;;1.01;77.03;98385.34;6248177;22;20027;-77
2021/11/19 02:55:17;;;;;;;42.78;17.90;;;;;;;0.94;77.35;98382.84;6282511;22;20445;-76
2021/11/19 02:57:45;;;;;;;38.53;17.30;;;;;;;0.97;77.17;98378.81;6220788;22;20019;-77
2021/11/19 03:00:14;;;;;;;35.95;17.60;;;;;;;0.88;77.36;98391.88;6221404;22;20020;-77
2021/11/19 03:02:42;;;;;;;39.78;18.08;;;;;;;0.93;77.37;98383.09;6222515;22;20032;-76
2021/11/19 03:05:11;;;;;;;45.75;17.75;;;;;;;1.02;77.06;98386.16;6256503;22;20047;-75
2021/11/19 03:07:38;;;;;;;39.85;17.00;;;;;;;1.04;76.96;98386.72;6246745;22;20102;-76
2021/11/19 03:10:09;;;;;;;45.38;18.17;;;;;;;1.04;76.99;98384.88;6221547;22;20333;-76
2021/11/19 03:12:39;;;;;;;47.80;18.73;;;;;;;1.08;76.80;98387.88;6219257;22;20423;-76
2021/11/19 03:15:06;;;;;;;;;;;;;;;1.00;77.04;98372.94;6195812;22;20030;-76
2021/11/19 03:17:33;;;;;;;42.35;17.92;;;;;;;1.02;76.94;98370.03;6250035;22;19919;-76
2021/11/19 03:20:05;;;;;;;45.08;20.23;;;;;;;1.05;77.00;98388.38;6233784;22;20023;-76
2021/11/19 03:22:33;;;;;;;44.42;19.38;;;;;;;1.02;76.92;98380.78;6250512;22;20031;-76
2021/11/19 03:25:02;;;;;;;44.28;19.17;;;;;;;0.88;77.49;98364.19;6222496;22;20054;-76
2021/11/19 03:27:30;;;;;;;42.78;18.85;;;;;;;0.94;77.76;98374.78;6250619;22;20023;-77
2021/11/19 03:30:14;;;;;;;45.35;18.52;;;;;;;1.00;77.36;98378.31;6200037;22;20405;-76
2021/11/19 03:32:40;;;;;;;51.53;19.80;;;;;;;0.94;77.30;98368.56;6224677;22;20030;-77
2021/11/19 03:35:08;;;;;;;46.88;19.40;;;;;;;1.09;76.83;98382.25;6222486;22;20421;-76
2021/11/19 03:37:34;;;;;;;48.85;19.98;;;;;;;1.01;77.24;98377.25;6221610;22;20027;-76
2021/11/19 03:40:05;;;;;;;47.20;18.85;;;;;;;0.95;77.49;98375.56;6258638;22;20015;-76
2021/11/19 03:42:31;;;;;;;50.28;20.25;;;;;;;0.97;77.49;98357.28;6248898;22;20469;-75
2021/11/19 03:45:05;;;;;;;50.17;19.00;;;;;;;0.92;77.34;98343.78;6197900;22;20452;-76
2021/11/19 03:47:35;;;;;;;54.08;20.83;;;;;;;0.89;77.53;98361.22;6222258;22;20035;-76
2021/11/19 03:50:08;;;;;;;52.38;20.00;;;;;;;1.05;77.18;98346.13;6258190;22;20039;-76
2021/11/19 03:52:38;;;;;;;51.22;20.73;;;;;;;1.01;77.01;98339.56;6247307;22;20069;-76
2021/11/19 03:55:10;;;;;;;46.70;19.77;;;;;;;1.02;77.32;98364.63;6222003;22;20028;-78
2021/11/19 03:57:37;;;;;;;60.95;22.08;;;;;;;1.03;77.34;98353.63;6247752;22;20043;-79
2021/11/19 04:00:12;;;;;;;52.25;20.55;;;;;;;1.03;77.38;98352.81;6253049;23;20479;-79
2021/11/19 04:02:45;;;;;;;54.80;20.42;;;;;;;1.06;77.27;98352.31;6271016;22;20024;-79
2021/11/19 04:05:13;;;;;;;61.70;22.02;;;;;;;0.38;77.27;98232.97;6202031;22;20019;-77
2021/11/19 04:07:40;;;;;;;60.40;21.25;;;;;;;0.94;76.92;98318.25;6304084;22;20054;-76
2021/11/19 04:10:08;;;;;;;56.75;22.88;;;;;;;1.13;77.02;98342.19;6272921;22;20022;-77
2021/11/19 04:12:39;;;;;;;57.30;22.65;;;;;;;1.06;77.50;98352.31;6246975;22;20051;-77
2021/11/19 04:15:10;;;;;;;61.78;21.50;;;;;;;1.08;77.37;98353.69;6221862;22;20046;-77
2021/11/19 04:17:36;;;;;;;63.72;21.30;;;;;;;1.07;77.39;98346.69;6247651;22;20380;-76
2021/11/19 04:20:06;;;;;;;59.47;22.27;;;;;;;1.14;76.97;98343.81;6247534;22;20114;-77
2021/11/19 04:22:33;;;;;;;59.55;22.33;;;;;;;1.13;77.08;98352.97;6284489;22;20349;-76
2021/11/19 04:25:02;;;;;;;;;;;;;;;1.08;77.12;98345.63;6222247;22;20458;-75
2021/11/19 04:27:33;;;;;;;59.10;21.23;;;;;;;1.05;77.24;98323.75;6282917;22;19923;-77
2021/11/19 04:30:14;;;;;;;67.93;23.00;;;;;;;0.98;77.73;98340.91;6254087;22;20070;-77
2021/11/19 04:32:45;;;;;;;61.92;21.20;;;;;;;0.97;77.41;98344.66;6273048;22;20035;-78
2021/11/19 04:35:13;;;;;;;68.25;23.65;;;;;;;0.94;77.78;98334.41;6222125;22;20035;-77
2021/11/19 04:37:39;;;;;;;68.20;23.25;;;;;;;0.94;77.74;98347.84;6271817;22;20360;-77
2021/11/19 04:40:13;;;;;;;62.30;22.40;;;;;;;0.90;77.67;98324.38;6280854;22;20023;-76
2021/11/19 04:42:43;;;;;;;64.22;21.60;;;;;;;1.05;77.79;98347.97;6274127;22;20264;-75
2021/11/19 04:45:14;;;;;;;70.40;22.88;;;;;;;0.95;78.21;98341.41;6247849;22;20214;-78
2021/11/19 04:47:43;;;;;;;66.53;22.10;;;;;;;0.97;78.09;98333.91;6221073;22;20035;-78
2021/11/19 04:50:13;;;;;;;87.53;25.33;;;;;;;0.90;78.29;98341.31;6229256;22;20019;-77
2021/11/19 04:52:39;;;;;;;68.60;23.45;;;;;;;1.03;78.00;98339.34;6271903;22;20046;-77
2021/11/19 04:55:11;;;;;;;71.28;24.77;;;;;;;0.99;78.16;98329.06;6282925;22;20042;-76
2021/11/19 04:57:38;;;;;;;65.15;23.67;;;;;;;0.95;77.99;98337.88;6256046;22;20016;-77
2021/11/19 05:00:07;;;;;;;70.53;24.05;;;;;;;1.03;78.21;98339.34;6280594;22;20024;-76
2021/11/19 05:02:38;;;;;;;72.05;24.75;;;;;;;1.14;77.76;98354.59;6247029;22;20028;-77
2021/11/19 05:05:23;;;;;;;80.88;25.13;;;;;;;0.80;78.14;98325.84;6224506;22;20357;-77
2021/11/19 05:07:50;;;;;;;73.15;23.05;;;;;;;0.98;78.35;98348.97;6256685;22;20457;-77
2021/11/19 05:10:17;;;;;;;69.85;24.98;;;;;;;1.06;77.97;98352.31;6246242;22;20023;-77
2021/11/19 05:12:47;;;;;;;76.43;24.42;;;;;;;0.89;78.33;98345.06;6257314;22;20106;-78
2021/11/19 05:15:14;;;;;;;77.30;23.50;;;;;;;1.02;78.52;98367.31;6196009;22;20444;-76
2021/11/19 05:17:41;;;;;;;81.95;22.65;;;;;;;1.11;78.34;98358.56;6256999;22;20049;-76
2021/11/19 05:20:11;;;;;;;80.10;25.05;;;;;;;1.05;78.06;98347.97;6255568;22;20352;-76
2021/11/19 05:22:39;;;;;;;77.70;25.65;;;;;;;1.04;78.56;98363.34;6255982;22;20100;-76
2021/11/19 05:25:13;;;;;;;73.85;24.13;;;;;;;1.05;78.62;98361.44;6221744;22;20020;-76
2021/11/19 05:27:40;;;;;;;75.68;24.38;;;;;;;1.12;78.46;98354.81;6246612;22;20058;-76
2021/11/19 05:30:08;;;;;;;72.70;24.83;;;;;;;1.13;78.25;98355.66;6255578;22;20026;-76
2021/11/19 05:32:47;;;;;;;76.50;25.38;;;;;;;1.16;78.11;98357.00;6247766;22;20270;-75
2021/11/19 05:35:15;;;;;;;83.70;25.83;;;;;;;1.04;78.14;98344.50;6254947;22;20019;-76
2021/11/19 05:37:44;;;;;;;79.60;25.17;;;;;;;1.05;78.26;98366.81;6220414;22;20031;-76
2021/11/19 05:40:17;;;;;;;72.38;24.92;;;;;;;1.18;78.34;98360.28;6246831;22;20051;-77
2021/11/19 05:42:45;;;;;;;91.68;25.77;;;;;;;1.15;78.43;98350.81;6255877;22;20483;-76
2021/11/19 05:45:14;;;;;;;76.07;25.40;;;;;;;1.13;78.53;98363.72;6221341;22;20078;-77
2021/11/19 05:48:04;;;;;;;91.82;26.35;;;;;;;1.04;78.91;98365.19;6250658;22;20024;-77
2021/11/19 05:50:37;;;;;;;78.00;25.20;;;;;;;1.19;78.55;98359.22;6221094;22;20023;-77
2021/11/19 05:53:08;;;;;;;72.07;24.02;;;;;;;1.13;78.34;98342.19;6256041;22;20045;-76
2021/11/19 05:55:39;;;;;;;76.82;23.65;;;;;;;1.31;77.87;98368.00;6278024;22;20334;-76
2021/11/19 05:58:07;;;;;;;70.75;24.25;;;;;;;1.25;78.20;98369.00;6256815;22;20103;-76
2021/11/19 06:00:41;;;;;;;70.22;24.67;;;;;;;1.22;78.21;98364.13;6220756;22;20055;-79
2021/11/19 06:03:21;;;;;;;80.25;25.90;;;;;;;1.16;78.76;98363.22;6197547;22;20122;-85
2021/11/19 06:06:09;;;;;;;83.40;24.30;;;;;;;1.14;78.54;98346.50;6249953;22;20073;-82
2021/11/19 06:08:58;;;;;;;79.53;24.45;;;;;;;1.14;78.21;98330.34;6270838;22;20024;-81
2021/11/19 06:11:32;;;;;;;80.90;24.05;;;;;;;1.29;78.00;98359.34;6245697;22;20032;-81
2021/11/19 06:14:03;;;;;;;80.55;25.92;;;;;;;1.34;78.07;98355.91;6247207;22;20027;-79
2021/11/19 06:16:34;;;;;;;81.75;25.63;;;;;;;1.29;78.40;98358.56;6221784;22;20027;-80
2021/11/19 06:19:04;;;;;;;84.50;25.20;;;;;;;1.27;78.55;98353.41;6284086;22;20495;-79
2021/11/19 06:21:35;;;;;;;73.25;24.08;;;;;;;1.35;78.12;98344.06;6248235;22;20028;-81
2021/11/19 06:24:08;;;;;;;79.80;25.92;;;;;;;0.94;77.88;98277.88;6245805;22;20444;-80
2021/11/19 06:26:38;;;;;;;77.50;26.50;;;;;;;0.80;77.54;98255.06;6246589;22;20129;-81
2021/11/19 06:29:06;;;;;;;85.50;26.92;;;;;;;1.32;78.45;98349.97;6281757;22;20020;-80
2021/11/19 06:31:38;;;;;;;86.13;25.63;;;;;;;1.40;77.99;98333.34;6222708;22;20031;-83
2021/11/19 06:34:05;;;;;;;87.53;26.45;;;;;;;1.25;78.27;98328.59;6245449;22;20461;-81
2021/11/19 06:36:32;;;;;;;84.20;25.90;;;;;;;1.33;78.20;98321.97;6247463;22;20789;-85
2021/11/19 06:38:59;;;;;;;83.68;26.70;;;;;;;1.46;78.07;98337.75;6271795;22;20027;-82
2021/11/19 06:41:28;;;;;;;82.97;25.58;;;;;;;1.51;77.79;98345.09;6245599;22;20019;-84
2021/11/19 06:44:11;;;;;;;84.70;26.17;;;;;;;0.99;78.34;98288.69;6255491;22;20086;-83
2021/11/19 06:47:10;;;;;;;88.13;26.67;;;;;;;1.46;78.11;98343.16;6201378;22;20024;-84
2021/11/19 06:49:59;;;;;;;86.70;27.05;;;;;;;1.35;77.97;98315.28;6228894;22;20031;-85
2021/11/19 06:52:46;;;;;;;82.13;25.08;;;;;;;1.51;77.75;98351.28;6223495;22;20085;-84
2021/11/19 06:55:32;;;;;;;87.95;26.20;;;;;;;1.13;77.71;98277.56;6246174;22;20028;-83
2021/11/19 06:58:17;;;;;;;85.20;25.92;;;;;;;1.15;78.18;98298.84;6246277;22;20410;-85
2021/11/19 07:01:06;;;;;;;82.93;26.05;;;;;;;1.46;78.20;98350.41;6251712;22;20084;-91
2021/11/19 07:03:43;;;;;;;81.40;25.52;;;;;;;1.21;78.13;98308.63;6236034;22;20387;-86
2021/11/19 07:06:13;;;;;;;79.10;24.55;;;;;;;1.51;78.10;98345.09;6196085;22;20027;-80
2021/11/19 07:08:39;;;;;;;77.57;24.73;;;;;;;1.35;78.16;98339.50;6256608;22;20047;-80
2021/11/19 07:11:09;;;;;;;85.47;26.25;;;;;;;1.44;78.34;98352.53;6219885;22;20270;-79
2021/11/19 07:13:36;;;;;;;92.00;25.83;;;;;;;1.54;78.04;98342.69;6220604;22;20110;-81
2021/11/19 07:16:03;;;;;;;94.65;24.27;;;;;;;1.46;78.26;98336.94;6275942;22;20050;-80
2021/11/19 07:18:30;;;;;;;;;;;;;;;1.48;78.15;98351.78;6246298;22;20055;-80
2021/11/19 07:20:57;;;;;;;89.18;26.20;;;;;;;1.53;77.95;98341.06;6221112;22;19919;-78
2021/11/19 07:23:24;;;;;;;85.53;25.52;;;;;;;1.47;77.95;98342.06;6254444;22;20015;-81
2021/11/19 07:25:51;;;;;;;94.07;26.73;;;;;;;1.57;78.10;98349.47;6221057;22;20392;-80
2021/11/19 07:28:19;;;;;;;87.03;24.83;;;;;;;1.62;77.97;98341.44;6270892;22;20023;-81
2021/11/19 07:30:53;;;;;;;78.57;25.83;;;;;;;1.57;77.98;98352.16;6252265;22;20368;-84
2021/11/19 07:33:38;;;;;;;78.28;23.83;;;;;;;1.47;78.08;98325.09;6273036;22;20034;-84
2021/11/19 07:36:24;;;;;;;89.75;25.85;;;;;;;1.58;78.19;98321.47;6252686;22;20456;-85
2021/11/19 07:39:29;;;;;;;79.75;24.38;;;;;;;1.58;78.21;98334.13;6238272;23;20028;-77
2021/11/19 07:42:21;;;;;;;76.68;23.50;;;;;;;1.46;78.22;98301.91;6227716;23;20311;-75
2021/11/19 07:44:47;;;;;;;82.60;23.67;;;;;;;1.61;78.13;98328.22;6234708;22;20084;-75
2021/11/19 07:47:33;;;;;;;92.10;24.80;;;;;;;1.58;78.28;98323.34;6245231;22;20024;-76
2021/11/19 07:50:01;;;;;;;84.07;24.35;;;;;;;1.53;78.23;98316.81;6279786;22;20030;-75
2021/11/19 07:52:29;;;;;;;84.22;25.05;;;;;;;1.63;78.09;98328.78;6269491;22;20038;-76
2021/11/19 07:54:55;;;;;;;87.05;23.85;;;;;;;1.54;78.17;98321.13;6270193;22;20019;-76
2021/11/19 07:57:23;;;;;;;91.38;26.13;;;;;;;1.51;78.44;98312.75;6273242;22;20028;-81
2021/11/19 07:59:49;;;;;;;89.30;24.52;;;;;;;1.48;78.39;98316.75;6279370;22;20016;-76
2021/11/19 08:02:15;;;;;;;86.25;24.13;;;;;;;1.55;78.43;98309.28;6280775;22;20051;-77
2021/11/19 08:04:43;;;;;;;85.45;24.48;;;;;;;1.63;77.93;98326.91;6255703;22;20034;-75
2021/11/19 08:07:19;;;;;;;69.50;23.73;;;;;;;1.59;78.07;98315.00;6168591;23;20031;-75
2021/11/19 08:09:48;;;;;;;76.72;22.17;;;;;;;1.67;77.89;98322.66;6214840;23;20024;-75
2021/11/19 08:12:31;;;;;;;79.68;22.45;;;;;;;1.73;77.80;98328.09;6230000;23;20119;-75
2021/11/19 08:15:12;;;;;;;79.18;22.13;;;;;;;1.62;77.96;98322.56;6241409;23;20039;-74
2021/11/19 08:17:41;;;;;;;78.15;25.75;;;;;;;1.60;78.00;98311.22;6251330;23;20016;-74
2021/11/19 08:20:26;;;;;;;73.60;23.63;;;;;;;1.60;78.12;98315.81;6226536;23;20090;-74
2021/11/19 08:22:54;;;;;;;76.78;22.38;;;;;;;1.68;77.97;98309.97;6226568;23;20099;-77
2021/11/19 08:25:21;;;;;;;76.63;21.60;;;;;;;1.69;77.91;98311.59;6250171;23;20028;-75
2021/11/19 08:27:50;;;;;;;71.70;22.85;;;;;;;1.57;77.92;98300.97;6253535;23;20103;-75
2021/11/19 08:30:23;;;;;;;81.53;23.52;;;;;;;1.78;77.61;98303.88;6250858;23;20047;-77
2021/11/19 08:32:49;;;;;;;76.50;22.75;;;;;;;1.87;77.18;98310.44;6225795;23;20027;-75
2021/11/19 08:35:15;;;;;;;76.30;22.65;;;;;;;1.68;77.29;98289.25;6192090;23;20016;-76
2021/11/19 08:37:42;;;;;;;90.78;23.10;;;;;;;1.78;77.27;98299.31;6165412;23;20032;-76
2021/11/19 08:40:11;;;;;;;76.85;22.42;;;;;;;1.82;77.47;98307.72;6216850;23;20078;-74
2021/11/19 08:42:38;;;;;;;72.00;21.63;;;;;;;1.89;76.91;98297.53;6254804;23;20020;-75
2021/11/19 08:45:05;;;;;;;76.65;24.10;;;;;;;1.90;76.63;98317.22;6214715;23;20086;-76
2021/11/19 08:47:31;;;;;;;71.18;24.05;;;;;;;1.89;76.89;98291.34;6252807;23;20099;-76
2021/11/19 08:50:01;;;;;;;79.28;22.95;;;;;;;1.86;76.92;98299.91;6215634;23;20035;-75
2021/11/19 08:52:27;;;;;;;84.53;23.40;;;;;;;1.75;77.11;98286.34;6215161;23;20284;-76
2021/11/19 08:54:55;;;;;;;81.82;23.27;;;;;;;1.92;76.71;98297.00;6249828;23;20349;-75
2021/11/19 08:57:23;;;;;;;76.03;21.83;;;;;;;1.94;76.76;98294.88;6226148;23;20393;-76
2021/11/19 08:59:51;;;;;;;75.88;22.67;;;;;;;2.00;76.42;98284.94;6251651;23;20024;-75
2021/11/19 09:02:19;;;;;;;73.07;21.88;;;;;;;2.03;76.24;98289.84;6225674;23;20030;-74
2021/11/19 09:04:45;;;;;;;79.80;23.17;;;;;;;1.84;76.56;98278.63;6253004;22;20074;-74
2021/11/19 09:07:11;;;;;;;75.45;22.90;;;;;;;2.02;76.53;98290.09;6285431;22;20024;-75
2021/11/19 09:09:38;;;;;;;74.25;22.38;;;;;;;2.02;75.98;98273.94;6282933;22;20152;-74
2021/11/19 09:12:06;;;;;;;74.30;22.10;;;;;;;1.97;76.24;98272.81;6284234;22;20419;-74
2021/11/19 09:14:32;;;;;;;69.30;20.70;;;;;;;2.00;76.17;98270.69;6258209;22;20019;-75
2021/11/19 09:17:02;;;;;;;65.78;20.90;;;;;;;2.03;76.03;98276.38;6275480;22;20100;-76
2021/11/19 09:19:43;;;;;;;73.97;21.65;;;;;;;1.98;76.21;98268.22;6283910;22;20024;-75
2021/11/19 09:22:22;;;;;;;81.35;21.17;;;;;;;2.02;76.03;98295.50;6273670;22;20097;-75
2021/11/19 09:24:49;;;;;;;81.60;23.25;;;;;;;1.90;75.97;98257.91;6283143;22;20019;-75
2021/11/19 09:27:19;;;;;;;79.55;23.25;;;;;;;1.93;76.24;98265.50;6236224;23;20122;-75
2021/11/19 09:29:47;;;;;;;75.45;21.08;;;;;;;2.05;75.96;98254.53;6222137;23;20031;-74
2021/11/19 09:32:16;;;;;;;69.38;20.75;;;;;;;1.95;75.72;98242.59;6212531;23;20032;-83
2021/11/19 09:34:54;;;;;;;75.80;21.60;;;;;;;2.03;75.76;98253.97;6161881;23;20021;-78
2021/11/19 09:37:24;;;;;;;79.43;22.88;;;;;;;2.05;75.95;98249.97;6196902;23;20021;-77
2021/11/19 09:39:52;;;;;;;81.13;23.95;;;;;;;1.96;76.06;98244.22;6187478;23;20029;-79
2021/11/19 09:42:33;;;;;;;82.45;23.52;;;;;;;2.03;76.00;98246.72;6223777;23;20020;-78
2021/11/19 09:45:26;;;;;;;76.70;22.98;;;;;;;2.03;75.98;98252.13;6162153;23;20393;-79
2021/11/19 09:48:23;;;;;;;66.57;20.15;;;;;;;2.04;75.82;98242.94;6223468;23;20031;-78
2021/11/19 09:51:18;;;;;;;69.05;23.00;;;;;;;2.10;76.02;98233.00;6192631;23;20103;-79
2021/11/19 09:54:22;;;;;;;78.80;23.90;;;;;;;2.05;75.72;98222.19;6178408;23;20464;-75
2021/11/19 09:57:16;;;;;;;74.88;21.77;;;;;;;2.09;75.52;98207.09;6207460;23;20047;-75
2021/11/19 09:59:46;;;;;;;78.75;22.30;;;;;;;2.28;75.39;98231.00;6213709;23;20025;-74
2021/11/19 10:02:44;;;;;;;82.50;22.55;;;;;;;2.22;75.10;98228.25;6186786;23;20465;-77
2021/11/19 10:05:27;;;;;;;70.25;21.60;;;;;;;2.26;75.01;98213.19;6201098;23;20032;-77
2021/11/19 10:08:06;;;;;;;77.88;23.15;;;;;;;2.21;74.96;98202.34;6222278;23;20036;-75
2021/11/19 10:10:40;;;;;;;80.88;23.92;;;;;;;2.18;75.40;98208.25;6220114;23;20032;-75
2021/11/19 10:13:15;;;;;;;80.72;22.00;;;;;;;2.26;75.14;98197.00;6223745;23;20111;-76
2021/11/19 10:16:02;;;;;;;75.57;23.27;;;;;;;2.15;75.20;98194.47;6218138;23;20021;-73
2021/11/19 10:18:34;;;;;;;74.03;20.85;;;;;;;2.18;75.06;98183.16;6196968;23;20017;-73
2021/11/19 10:21:03;;;;;;;82.07;23.25;;;;;;;2.21;75.01;98179.97;6186472;23;20024;-73
2021/11/19 10:23:34;;;;;;;77.93;24.58;;;;;;;2.26;75.15;98197.00;6220767;23;20128;-74
2021/11/19 10:26:05;;;;;;;84.82;24.17;;;;;;;2.31;75.19;98195.41;6217030;23;20044;-74
2021/11/19 10:28:35;;;;;;;81.75;22.10;;;;;;;2.37;74.82;98184.41;6186468;23;20404;-73
2021/11/19 10:31:03;;;;;;;78.53;22.55;;;;;;;2.36;74.86;98184.63;6185647;23;20094;-74
2021/11/19 10:33:32;;;;;;;83.88;24.65;;;;;;;2.28;75.01;98183.25;6196209;23;20071;-74
2021/11/19 10:36:14;;;;;;;76.05;22.27;;;;;;;2.16;75.27;98175.34;6217755;23;20821;-74
2021/11/19 10:39:20;;;;;;;86.53;22.00;;;;;;;2.18;75.28;98165.13;6160210;23;20056;-73
2021/11/19 10:42:31;;;;;;;76.07;22.00;;;;;;;2.19;75.34;98168.63;6186656;23;20044;-72
2021/11/19 10:45:31;;;;;;;72.93;23.77;;;;;;;2.21;75.26;98172.69;6186208;23;20043;-72
2021/11/19 10:48:31;;;;;;;70.57;22.00;;;;;;;2.23;75.06;98173.22;6195923;23;20563;-73
2021/11/19 10:51:34;;;;;;;70.50;23.55;;;;;;;2.25;75.00;98160.28;6215737;23;20024;-73
2021/11/19 10:54:29;;;;;;;86.22;24.50;;;;;;;2.23;74.93;98158.94;6210918;23;20492;-74
2021/11/19 10:57:04;;;;;;;74.72;22.85;;;;;;;2.13;75.33;98165.88;6212978;23;20099;-73
2021/11/19 10:59:36;;;;;;;75.60;24.27;;;;;;;2.21;75.47;98159.19;6183872;23;20055;-73
2021/11/19 11:02:24;;;;;;;75.60;22.15;;;;;;;2.11;75.74;98157.25;6186135;23;20028;-72
2021/11/19 11:04:55;;;;;;;74.82;24.20;;;;;;;2.18;75.48;98157.03;6193655;23;20020;-74
2021/11/19 11:07:25;;;;;;;70.65;21.75;;;;;;;2.22;75.06;98160.03;6156094;23;20462;-74
2021/11/19 11:09:53;;;;;;;84.22;24.10;;;;;;;2.26;75.27;98164.63;6191698;23;20108;-74
2021/11/19 11:12:29;;;;;;;76.22;21.65;;;;;;;2.25;75.23;98146.00;6156314;23;20028;-74
2021/11/19 11:15:21;;;;;;;77.55;23.23;;;;;;;2.22;75.60;98152.72;6191702;23;20486;-74
2021/11/19 11:17:54;;;;;;;87.22;24.73;;;;;;;2.28;75.46;98142.00;6189471;23;20048;-74
2021/11/19 11:20:26;;;;;;;80.50;23.02;;;;;;;2.24;75.30;98145.19;6154526;23;20474;-73
2021/11/19 11:22:55;;;;;;;84.50;25.60;;;;;;;2.32;75.13;98132.28;6189920;23;20032;-74
2021/11/19 11:25:25;;;;;;;86.43;28.42;;;;;;;2.32;75.11;98143.88;6187832;23;20028;-74
2021/11/19 11:28:13;;;;;;;88.18;24.80;;;;;;;2.31;75.12;98142.25;6163707;23;20024;-73
2021/11/19 11:30:53;;;;;;;77.63;23.00;;;;;;;2.34;75.02;98146.31;6153008;23;20407;-75
2021/11/19 11:33:23;;;;;;;73.60;23.17;;;;;;;2.37;74.92;98137.72;6190550;23;20029;-75
2021/11/19 11:35:53;;;;;;;92.97;28.85;;;;;;;2.26;74.88;98124.19;6158800;23;20021;-73
2021/11/19 11:38:49;;;;;;;85.72;26.38;;;;;;;2.38;75.04;98152.81;6191602;23;20407;-73
2021/11/19 11:41:27;;;;;;;77.00;24.95;;;;;;;2.33;74.79;98125.81;6175812;23;20032;-75
2021/11/19 11:44:13;;;;;;;94.80;26.40;;;;;;;2.32;75.04;98141.19;6165492;23;20025;-74
2021/11/19 11:46:59;;;;;;;82.45;22.90;;;;;;;2.26;75.09;98129.56;6157914;23;20099;-75
2021/11/19 11:49:47;;;;;;;80.68;23.92;;;;;;;2.28;74.83;98125.81;6194468;23;20208;-74
2021/11/19 11:52:52;;;;;;;81.35;24.50;;;;;;;2.28;75.47;98126.59;6157957;23;20059;-74
2021/11/19 11:55:25;;;;;;;80.65;25.10;;;;;;;2.23;75.15;98113.09;6092700;23;20742;-73